sensor_id;sensor_type;location;lat;lon;timestamp;temperature;humidity
15355;DHT22;7777;52.254;9.618;2024-02-15T00:02:20;12.30;99.90
15355;DHT22;7777;52.254;9.618;2024-02-15T00:04:46;12.30;99.90
15355;DHT22;7777;52.254;9.618;2024-02-15T00:07:12;12.30;99.90
15355;DHT22;7777;52.254;9.618;2024-02-15T00:09:38;12.30;99.90
15355;DHT22;7777;52.254;9.618;2024-02-15T00:12:03;12.30;99.90
15355;DHT22;7777;52.254;9.618;2024-02-15T00:14:30;12.40;99.90
15355;DHT22;7777;52.254;9.618;2024-02-15T00:16:57;12.40;99.90
15355;DHT22;7777;52.254;9.618;2024-02-15T00:19:23;12.40;99.90
15355;DHT22;7777;52.254;9.618;2024-02-15T00:21:49;12.40;99.90
15355;DHT22;7777;52.254;9.618;2024-02-15T00:24:15;12.40;99.90
15355;DHT22;7777;52.254;9.618;2024-02-15T00:26:41;12.40;99.90
15355;DHT22;7777;52.254;9.618;2024-02-15T00:29:08;12.40;99.90
15355;DHT22;7777;52.254;9.618;2024-02-15T00:31:34;12.40;99.90
15355;DHT22;7777;52.254;9.618;2024-02-15T00:34:03;12.40;99.90
15355;DHT22;7777;52.254;9.618;2024-02-15T00:36:29;12.40;99.90
15355;DHT22;7777;52.254;9.618;2024-02-15T00:38:55;12.40;99.90
15355;DHT22;7777;52.254;9.618;2024-02-15T00:41:21;12.40;99.90
15355;DHT22;7777;52.254;9.618;2024-02-15T00:43:47;12.40;99.90
15355;DHT22;7777;52.254;9.618;2024-02-15T00:46:14;12.40;99.90
15355;DHT22;7777;52.254;9.618;2024-02-15T00:48:42;12.40;99.90
15355;DHT22;7777;52.254;9.618;2024-02-15T00:51:08;12.40;99.90
15355;DHT22;7777;52.254;9.618;2024-02-15T00:53:34;12.40;99.90
15355;DHT22;7777;52.254;9.618;2024-02-15T00:56:01;12.40;99.90
15355;DHT22;7777;52.254;9.618;2024-02-15T00:58:26;12.40;99.90
15355;DHT22;7777;52.254;9.618;2024-02-15T01:00:55;12.40;99.90
15355;DHT22;7777;52.254;9.618;2024-02-15T01:03:21;12.40;99.90
15355;DHT22;7777;52.254;9.618;2024-02-15T01:05:48;12.40;99.90
15355;DHT22;7777;52.254;9.618;2024-02-15T01:08:13;12.40;99.90
15355;DHT22;7777;52.254;9.618;2024-02-15T01:10:39;12.40;99.90
15355;DHT22;7777;52.254;9.618;2024-02-15T01:13:05;12.40;99.90
15355;DHT22;7777;52.254;9.618;2024-02-15T01:15:31;12.40;99.90
15355;DHT22;7777;52.254;9.618;2024-02-15T01:17:56;12.40;99.90
15355;DHT22;7777;52.254;9.618;2024-02-15T01:20:22;12.40;99.90
15355;DHT22;7777;52.254;9.618;2024-02-15T01:22:48;12.40;99.90
15355;DHT22;7777;52.254;9.618;2024-02-15T01:25:15;12.30;99.90
15355;DHT22;7777;52.254;9.618;2024-02-15T01:27:42;12.40;99.90
15355;DHT22;7777;52.254;9.618;2024-02-15T01:30:08;12.30;99.90
15355;DHT22;7777;52.254;9.618;2024-02-15T01:32:34;12.40;99.90
15355;DHT22;7777;52.254;9.618;2024-02-15T01:35:00;12.40;99.90
15355;DHT22;7777;52.254;9.618;2024-02-15T01:37:26;12.30;99.90
15355;DHT22;7777;52.254;9.618;2024-02-15T01:39:51;12.30;99.90
15355;DHT22;7777;52.254;9.618;2024-02-15T01:42:18;12.40;99.90
15355;DHT22;7777;52.254;9.618;2024-02-15T01:44:44;12.30;99.90
15355;DHT22;7777;52.254;9.618;2024-02-15T01:47:13;12.30;99.90
15355;DHT22;7777;52.254;9.618;2024-02-15T01:49:39;12.30;99.90
15355;DHT22;7777;52.254;9.618;2024-02-15T01:52:06;12.30;99.90
15355;DHT22;7777;52.254;9.618;2024-02-15T01:54:36;12.30;99.90
15355;DHT22;7777;52.254;9.618;2024-02-15T01:57:04;12.30;99.90
15355;DHT22;7777;52.254;9.618;2024-02-15T01:59:30;12.30;99.90
15355;DHT22;7777;52.254;9.618;2024-02-15T02:01:57;12.30;99.90
15355;DHT22;7777;52.254;9.618;2024-02-15T02:04:23;12.30;99.90
15355;DHT22;7777;52.254;9.618;2024-02-15T02:06:49;12.30;99.90
15355;DHT22;7777;52.254;9.618;2024-02-15T02:09:14;12.30;99.90
15355;DHT22;7777;52.254;9.618;2024-02-15T02:11:45;12.30;99.90
15355;DHT22;7777;52.254;9.618;2024-02-15T02:14:12;12.30;99.90
15355;DHT22;7777;52.254;9.618;2024-02-15T02:16:37;12.30;99.90
15355;DHT22;7777;52.254;9.618;2024-02-15T02:19:05;12.30;99.90
15355;DHT22;7777;52.254;9.618;2024-02-15T02:21:35;12.30;99.90
15355;DHT22;7777;52.254;9.618;2024-02-15T02:24:10;12.30;99.90
15355;DHT22;7777;52.254;9.618;2024-02-15T02:26:43;12.30;99.90
15355;DHT22;7777;52.254;9.618;2024-02-15T02:29:09;12.30;99.90
15355;DHT22;7777;52.254;9.618;2024-02-15T02:31:36;12.30;99.90
15355;DHT22;7777;52.254;9.618;2024-02-15T02:34:02;12.30;99.90
15355;DHT22;7777;52.254;9.618;2024-02-15T02:36:28;12.30;99.90
15355;DHT22;7777;52.254;9.618;2024-02-15T02:38:55;12.30;99.90
15355;DHT22;7777;52.254;9.618;2024-02-15T02:41:25;12.30;99.90
15355;DHT22;7777;52.254;9.618;2024-02-15T02:43:52;12.30;99.90
15355;DHT22;7777;52.254;9.618;2024-02-15T02:46:18;12.40;99.90
15355;DHT22;7777;52.254;9.618;2024-02-15T02:48:43;12.30;99.90
15355;DHT22;7777;52.254;9.618;2024-02-15T02:51:09;12.30;99.90
15355;DHT22;7777;52.254;9.618;2024-02-15T02:53:35;12.30;99.90
15355;DHT22;7777;52.254;9.618;2024-02-15T02:56:01;12.40;99.90
15355;DHT22;7777;52.254;9.618;2024-02-15T02:58:29;12.40;99.90
15355;DHT22;7777;52.254;9.618;2024-02-15T03:00:55;12.40;99.90
15355;DHT22;7777;52.254;9.618;2024-02-15T03:03:21;12.30;99.90
15355;DHT22;7777;52.254;9.618;2024-02-15T03:05:49;12.30;99.90
15355;DHT22;7777;52.254;9.618;2024-02-15T03:08:15;12.40;99.90
15355;DHT22;7777;52.254;9.618;2024-02-15T03:10:43;12.40;99.90
15355;DHT22;7777;52.254;9.618;2024-02-15T03:13:08;12.40;99.90
15355;DHT22;7777;52.254;9.618;2024-02-15T03:15:35;12.40;99.90
15355;DHT22;7777;52.254;9.618;2024-02-15T03:18:02;12.40;99.90
15355;DHT22;7777;52.254;9.618;2024-02-15T03:20:32;12.40;99.90
15355;DHT22;7777;52.254;9.618;2024-02-15T03:23:00;12.40;99.90
15355;DHT22;7777;52.254;9.618;2024-02-15T03:25:27;12.40;99.90
15355;DHT22;7777;52.254;9.618;2024-02-15T03:27:55;12.40;99.90
15355;DHT22;7777;52.254;9.618;2024-02-15T03:30:26;12.40;99.90
15355;DHT22;7777;52.254;9.618;2024-02-15T03:32:54;12.40;99.90
15355;DHT22;7777;52.254;9.618;2024-02-15T03:35:21;12.40;99.90
15355;DHT22;7777;52.254;9.618;2024-02-15T03:37:48;12.40;99.90
15355;DHT22;7777;52.254;9.618;2024-02-15T03:40:18;12.40;99.90
15355;DHT22;7777;52.254;9.618;2024-02-15T03:42:47;12.40;99.90
15355;DHT22;7777;52.254;9.618;2024-02-15T03:45:13;12.40;99.90
15355;DHT22;7777;52.254;9.618;2024-02-15T03:47:39;12.40;99.90
15355;DHT22;7777;52.254;9.618;2024-02-15T03:50:05;12.40;99.90
15355;DHT22;7777;52.254;9.618;2024-02-15T03:52:37;12.40;99.90
15355;DHT22;7777;52.254;9.618;2024-02-15T03:55:04;12.40;99.90
15355;DHT22;7777;52.254;9.618;2024-02-15T03:57:31;12.40;99.90
15355;DHT22;7777;52.254;9.618;2024-02-15T03:59:56;12.40;99.90
15355;DHT22;7777;52.254;9.618;2024-02-15T04:02:24;12.50;99.90
15355;DHT22;7777;52.254;9.618;2024-02-15T04:04:56;12.40;99.90
15355;DHT22;7777;52.254;9.618;2024-02-15T04:07:22;12.40;99.90
15355;DHT22;7777;52.254;9.618;2024-02-15T04:09:51;12.50;99.90
15355;DHT22;7777;52.254;9.618;2024-02-15T04:12:16;12.40;99.90
15355;DHT22;7777;52.254;9.618;2024-02-15T04:14:43;12.50;99.90
15355;DHT22;7777;52.254;9.618;2024-02-15T04:17:13;12.40;99.90
15355;DHT22;7777;52.254;9.618;2024-02-15T04:19:39;12.50;99.90
15355;DHT22;7777;52.254;9.618;2024-02-15T04:22:05;12.40;99.90
15355;DHT22;7777;52.254;9.618;2024-02-15T04:24:35;12.40;99.90
15355;DHT22;7777;52.254;9.618;2024-02-15T04:27:08;12.40;99.90
15355;DHT22;7777;52.254;9.618;2024-02-15T04:29:37;12.40;99.90
15355;DHT22;7777;52.254;9.618;2024-02-15T04:32:06;12.40;99.90
15355;DHT22;7777;52.254;9.618;2024-02-15T04:34:36;12.40;99.90
15355;DHT22;7777;52.254;9.618;2024-02-15T04:37:02;12.40;99.90
15355;DHT22;7777;52.254;9.618;2024-02-15T04:39:32;12.40;99.90
15355;DHT22;7777;52.254;9.618;2024-02-15T04:42:04;12.40;99.90
15355;DHT22;7777;52.254;9.618;2024-02-15T04:44:33;12.40;99.90
15355;DHT22;7777;52.254;9.618;2024-02-15T04:47:01;12.40;99.90
15355;DHT22;7777;52.254;9.618;2024-02-15T04:49:30;12.40;99.90
15355;DHT22;7777;52.254;9.618;2024-02-15T04:51:56;12.40;99.90
15355;DHT22;7777;52.254;9.618;2024-02-15T04:54:23;12.40;99.90
15355;DHT22;7777;52.254;9.618;2024-02-15T04:56:48;12.40;99.90
15355;DHT22;7777;52.254;9.618;2024-02-15T04:59:19;12.40;99.90
15355;DHT22;7777;52.254;9.618;2024-02-15T05:01:46;12.40;99.90
15355;DHT22;7777;52.254;9.618;2024-02-15T05:04:12;12.40;99.90
15355;DHT22;7777;52.254;9.618;2024-02-15T05:06:39;12.40;99.90
15355;DHT22;7777;52.254;9.618;2024-02-15T05:09:06;12.40;99.90
15355;DHT22;7777;52.254;9.618;2024-02-15T05:11:42;12.40;99.90
15355;DHT22;7777;52.254;9.618;2024-02-15T05:14:12;12.40;99.90
15355;DHT22;7777;52.254;9.618;2024-02-15T05:16:38;12.40;99.90
15355;DHT22;7777;52.254;9.618;2024-02-15T05:19:08;12.40;99.90
15355;DHT22;7777;52.254;9.618;2024-02-15T05:21:37;12.40;99.90
15355;DHT22;7777;52.254;9.618;2024-02-15T05:24:04;12.40;99.90
15355;DHT22;7777;52.254;9.618;2024-02-15T05:26:31;12.40;99.90
15355;DHT22;7777;52.254;9.618;2024-02-15T05:28:57;12.40;99.90
15355;DHT22;7777;52.254;9.618;2024-02-15T05:31:22;12.40;99.90
15355;DHT22;7777;52.254;9.618;2024-02-15T05:33:53;12.40;99.90
15355;DHT22;7777;52.254;9.618;2024-02-15T05:36:21;12.40;99.90
15355;DHT22;7777;52.254;9.618;2024-02-15T05:38:49;12.40;99.90
15355;DHT22;7777;52.254;9.618;2024-02-15T05:41:16;12.40;99.90
15355;DHT22;7777;52.254;9.618;2024-02-15T05:43:42;12.40;99.90
15355;DHT22;7777;52.254;9.618;2024-02-15T05:46:09;12.40;99.90
15355;DHT22;7777;52.254;9.618;2024-02-15T05:48:36;12.40;99.90
15355;DHT22;7777;52.254;9.618;2024-02-15T05:51:09;12.40;99.90
15355;DHT22;7777;52.254;9.618;2024-02-15T05:53:35;12.40;99.90
15355;DHT22;7777;52.254;9.618;2024-02-15T05:56:09;12.40;99.90
15355;DHT22;7777;52.254;9.618;2024-02-15T05:58:38;12.40;99.90
15355;DHT22;7777;52.254;9.618;2024-02-15T06:01:07;12.40;99.90
15355;DHT22;7777;52.254;9.618;2024-02-15T06:03:37;12.40;99.90
15355;DHT22;7777;52.254;9.618;2024-02-15T06:06:04;12.40;99.90
15355;DHT22;7777;52.254;9.618;2024-02-15T06:08:34;12.40;99.90
15355;DHT22;7777;52.254;9.618;2024-02-15T06:11:00;12.40;99.90
15355;DHT22;7777;52.254;9.618;2024-02-15T06:13:27;12.40;99.90
15355;DHT22;7777;52.254;9.618;2024-02-15T06:15:53;12.40;99.90
15355;DHT22;7777;52.254;9.618;2024-02-15T06:18:27;12.40;99.90
15355;DHT22;7777;52.254;9.618;2024-02-15T06:20:58;12.40;99.90
15355;DHT22;7777;52.254;9.618;2024-02-15T06:23:27;12.40;99.90
15355;DHT22;7777;52.254;9.618;2024-02-15T06:25:55;12.40;99.90
15355;DHT22;7777;52.254;9.618;2024-02-15T06:28:23;12.40;99.90
15355;DHT22;7777;52.254;9.618;2024-02-15T06:31:07;12.40;99.90
15355;DHT22;7777;52.254;9.618;2024-02-15T06:33:52;12.40;99.90
15355;DHT22;7777;52.254;9.618;2024-02-15T06:36:40;12.40;99.90
15355;DHT22;7777;52.254;9.618;2024-02-15T06:39:34;12.40;99.90
15355;DHT22;7777;52.254;9.618;2024-02-15T06:42:15;12.40;99.90
15355;DHT22;7777;52.254;9.618;2024-02-15T06:44:44;12.40;99.90
15355;DHT22;7777;52.254;9.618;2024-02-15T06:47:10;12.40;99.90
15355;DHT22;7777;52.254;9.618;2024-02-15T06:49:38;12.40;99.90
15355;DHT22;7777;52.254;9.618;2024-02-15T06:52:08;12.40;99.90
15355;DHT22;7777;52.254;9.618;2024-02-15T06:54:35;12.40;99.90
15355;DHT22;7777;52.254;9.618;2024-02-15T06:57:04;12.50;99.90
15355;DHT22;7777;52.254;9.618;2024-02-15T06:59:30;12.50;99.90
15355;DHT22;7777;52.254;9.618;2024-02-15T07:02:01;12.50;99.90
15355;DHT22;7777;52.254;9.618;2024-02-15T07:04:30;12.50;99.90
15355;DHT22;7777;52.254;9.618;2024-02-15T07:06:57;12.50;99.90
15355;DHT22;7777;52.254;9.618;2024-02-15T07:09:23;12.50;99.90
15355;DHT22;7777;52.254;9.618;2024-02-15T07:11:52;12.50;99.90
15355;DHT22;7777;52.254;9.618;2024-02-15T07:14:18;12.50;99.90
15355;DHT22;7777;52.254;9.618;2024-02-15T07:16:49;12.50;99.90
15355;DHT22;7777;52.254;9.618;2024-02-15T07:19:15;12.50;99.90
15355;DHT22;7777;52.254;9.618;2024-02-15T07:21:42;12.50;99.90
15355;DHT22;7777;52.254;9.618;2024-02-15T07:24:07;12.50;99.90
15355;DHT22;7777;52.254;9.618;2024-02-15T07:26:35;12.50;99.90
15355;DHT22;7777;52.254;9.618;2024-02-15T07:29:02;12.50;99.90
15355;DHT22;7777;52.254;9.618;2024-02-15T07:31:32;12.50;99.90
15355;DHT22;7777;52.254;9.618;2024-02-15T07:34:01;12.50;99.90
15355;DHT22;7777;52.254;9.618;2024-02-15T07:36:27;12.50;99.90
15355;DHT22;7777;52.254;9.618;2024-02-15T07:38:53;12.50;99.90
15355;DHT22;7777;52.254;9.618;2024-02-15T07:41:21;12.50;99.90
15355;DHT22;7777;52.254;9.618;2024-02-15T07:43:51;12.50;99.90
15355;DHT22;7777;52.254;9.618;2024-02-15T07:46:20;12.50;99.90
15355;DHT22;7777;52.254;9.618;2024-02-15T07:48:47;12.50;99.90
15355;DHT22;7777;52.254;9.618;2024-02-15T07:51:16;12.60;99.90
15355;DHT22;7777;52.254;9.618;2024-02-15T07:53:44;12.60;99.90
15355;DHT22;7777;52.254;9.618;2024-02-15T07:56:10;12.60;99.90
15355;DHT22;7777;52.254;9.618;2024-02-15T07:58:43;12.60;99.90
15355;DHT22;7777;52.254;9.618;2024-02-15T08:01:15;12.70;99.90
15355;DHT22;7777;52.254;9.618;2024-02-15T08:03:43;12.60;99.90
15355;DHT22;7777;52.254;9.618;2024-02-15T08:06:12;12.70;99.90
15355;DHT22;7777;52.254;9.618;2024-02-15T08:08:40;12.70;99.90
15355;DHT22;7777;52.254;9.618;2024-02-15T08:11:13;12.70;99.90
15355;DHT22;7777;52.254;9.618;2024-02-15T08:13:46;12.70;99.90
15355;DHT22;7777;52.254;9.618;2024-02-15T08:16:22;12.70;99.90
15355;DHT22;7777;52.254;9.618;2024-02-15T08:18:49;12.70;99.90
15355;DHT22;7777;52.254;9.618;2024-02-15T08:21:18;12.70;99.90
15355;DHT22;7777;52.254;9.618;2024-02-15T08:23:46;12.70;99.90
15355;DHT22;7777;52.254;9.618;2024-02-15T08:26:11;12.80;99.90
15355;DHT22;7777;52.254;9.618;2024-02-15T08:28:38;12.80;99.90
15355;DHT22;7777;52.254;9.618;2024-02-15T08:31:03;12.80;99.90
15355;DHT22;7777;52.254;9.618;2024-02-15T08:33:29;12.80;99.90
15355;DHT22;7777;52.254;9.618;2024-02-15T08:35:55;12.80;99.90
15355;DHT22;7777;52.254;9.618;2024-02-15T08:38:24;12.80;99.90
15355;DHT22;7777;52.254;9.618;2024-02-15T08:40:50;12.80;99.90
15355;DHT22;7777;52.254;9.618;2024-02-15T08:43:16;12.90;99.90
15355;DHT22;7777;52.254;9.618;2024-02-15T08:45:42;12.90;99.90
15355;DHT22;7777;52.254;9.618;2024-02-15T08:48:08;12.90;99.90
15355;DHT22;7777;52.254;9.618;2024-02-15T08:50:34;12.90;99.90
15355;DHT22;7777;52.254;9.618;2024-02-15T08:53:01;12.90;99.90
15355;DHT22;7777;52.254;9.618;2024-02-15T08:55:31;13.00;99.90
15355;DHT22;7777;52.254;9.618;2024-02-15T08:57:57;13.00;99.90
15355;DHT22;7777;52.254;9.618;2024-02-15T09:00:25;13.00;99.90
15355;DHT22;7777;52.254;9.618;2024-02-15T09:02:52;13.00;99.90
15355;DHT22;7777;52.254;9.618;2024-02-15T09:05:18;13.00;99.90
15355;DHT22;7777;52.254;9.618;2024-02-15T09:07:45;13.00;99.90
15355;DHT22;7777;52.254;9.618;2024-02-15T09:10:16;13.10;99.90
15355;DHT22;7777;52.254;9.618;2024-02-15T09:12:43;13.00;99.90
15355;DHT22;7777;52.254;9.618;2024-02-15T09:15:12;13.10;99.90
15355;DHT22;7777;52.254;9.618;2024-02-15T09:17:38;13.10;99.90
15355;DHT22;7777;52.254;9.618;2024-02-15T09:20:13;13.10;99.90
15355;DHT22;7777;52.254;9.618;2024-02-15T09:22:46;13.10;99.90
15355;DHT22;7777;52.254;9.618;2024-02-15T09:25:14;13.10;99.90
15355;DHT22;7777;52.254;9.618;2024-02-15T09:27:40;13.10;99.90
15355;DHT22;7777;52.254;9.618;2024-02-15T09:30:08;13.20;99.90
15355;DHT22;7777;52.254;9.618;2024-02-15T09:32:39;13.20;99.90
15355;DHT22;7777;52.254;9.618;2024-02-15T09:35:05;13.20;99.90
15355;DHT22;7777;52.254;9.618;2024-02-15T09:37:38;13.20;99.90
15355;DHT22;7777;52.254;9.618;2024-02-15T09:40:10;13.20;99.90
15355;DHT22;7777;52.254;9.618;2024-02-15T09:42:40;13.20;99.90
15355;DHT22;7777;52.254;9.618;2024-02-15T09:45:07;13.30;99.90
15355;DHT22;7777;52.254;9.618;2024-02-15T09:47:35;13.30;99.90
15355;DHT22;7777;52.254;9.618;2024-02-15T09:50:07;13.30;99.90
15355;DHT22;7777;52.254;9.618;2024-02-15T09:52:34;13.30;99.90
15355;DHT22;7777;52.254;9.618;2024-02-15T09:55:03;13.30;99.90
15355;DHT22;7777;52.254;9.618;2024-02-15T09:57:30;13.30;99.90
15355;DHT22;7777;52.254;9.618;2024-02-15T10:00:00;13.30;99.90
15355;DHT22;7777;52.254;9.618;2024-02-15T10:02:29;13.30;99.90
15355;DHT22;7777;52.254;9.618;2024-02-15T10:04:56;13.30;99.90
15355;DHT22;7777;52.254;9.618;2024-02-15T10:07:25;13.30;99.90
15355;DHT22;7777;52.254;9.618;2024-02-15T10:09:52;13.30;99.90
15355;DHT22;7777;52.254;9.618;2024-02-15T10:12:19;13.30;99.90
15355;DHT22;7777;52.254;9.618;2024-02-15T10:14:50;13.30;99.90
15355;DHT22;7777;52.254;9.618;2024-02-15T10:17:20;13.30;99.90
15355;DHT22;7777;52.254;9.618;2024-02-15T10:20:05;13.30;99.90
15355;DHT22;7777;52.254;9.618;2024-02-15T10:22:32;13.30;99.90
15355;DHT22;7777;52.254;9.618;2024-02-15T10:25:13;13.30;99.90
15355;DHT22;7777;52.254;9.618;2024-02-15T10:27:40;13.30;99.90
15355;DHT22;7777;52.254;9.618;2024-02-15T10:30:19;13.30;99.90
15355;DHT22;7777;52.254;9.618;2024-02-15T10:32:47;13.30;99.90
15355;DHT22;7777;52.254;9.618;2024-02-15T10:35:22;13.30;99.90
15355;DHT22;7777;52.254;9.618;2024-02-15T10:37:49;13.30;99.90
15355;DHT22;7777;52.254;9.618;2024-02-15T10:40:20;13.30;99.90
15355;DHT22;7777;52.254;9.618;2024-02-15T10:42:47;13.30;99.90
15355;DHT22;7777;52.254;9.618;2024-02-15T10:45:15;13.30;99.90
15355;DHT22;7777;52.254;9.618;2024-02-15T10:47:44;13.30;99.90
15355;DHT22;7777;52.254;9.618;2024-02-15T10:50:11;13.30;99.90
15355;DHT22;7777;52.254;9.618;2024-02-15T10:52:44;13.30;99.90
15355;DHT22;7777;52.254;9.618;2024-02-15T10:55:22;13.30;99.90
15355;DHT22;7777;52.254;9.618;2024-02-15T10:58:09;13.30;99.90
15355;DHT22;7777;52.254;9.618;2024-02-15T11:00:39;13.30;99.90
15355;DHT22;7777;52.254;9.618;2024-02-15T11:03:10;13.30;99.90
15355;DHT22;7777;52.254;9.618;2024-02-15T11:05:39;13.40;99.90
15355;DHT22;7777;52.254;9.618;2024-02-15T11:08:07;13.40;99.90
15355;DHT22;7777;52.254;9.618;2024-02-15T11:10:35;13.40;99.90
15355;DHT22;7777;52.254;9.618;2024-02-15T11:13:03;13.40;99.90
15355;DHT22;7777;52.254;9.618;2024-02-15T11:15:45;13.40;99.90
15355;DHT22;7777;52.254;9.618;2024-02-15T11:18:44;13.50;99.90
15355;DHT22;7777;52.254;9.618;2024-02-15T11:24:29;13.50;99.90
15355;DHT22;7777;52.254;9.618;2024-02-15T11:27:02;13.50;99.90
15355;DHT22;7777;52.254;9.618;2024-02-15T11:35:05;13.50;99.90
15355;DHT22;7777;52.254;9.618;2024-02-15T11:40:16;13.50;99.90
15355;DHT22;7777;52.254;9.618;2024-02-15T11:42:43;13.60;99.90
15355;DHT22;7777;52.254;9.618;2024-02-15T11:45:09;13.60;99.90
15355;DHT22;7777;52.254;9.618;2024-02-15T11:47:41;13.60;99.90
15355;DHT22;7777;52.254;9.618;2024-02-15T11:50:11;13.60;99.90
15355;DHT22;7777;52.254;9.618;2024-02-15T11:52:41;13.60;99.90
15355;DHT22;7777;52.254;9.618;2024-02-15T11:55:08;13.60;99.90
15355;DHT22;7777;52.254;9.618;2024-02-15T11:57:42;13.60;99.90
15355;DHT22;7777;52.254;9.618;2024-02-15T12:00:23;13.60;99.90
15355;DHT22;7777;52.254;9.618;2024-02-15T12:03:08;13.60;99.90
15355;DHT22;7777;52.254;9.618;2024-02-15T12:05:54;13.60;99.90
15355;DHT22;7777;52.254;9.618;2024-02-15T12:08:40;13.60;99.90
15355;DHT22;7777;52.254;9.618;2024-02-15T12:11:28;13.60;99.90
15355;DHT22;7777;52.254;9.618;2024-02-15T12:14:14;13.60;99.90
15355;DHT22;7777;52.254;9.618;2024-02-15T12:17:06;13.60;99.90
15355;DHT22;7777;52.254;9.618;2024-02-15T12:19:53;13.60;99.90
15355;DHT22;7777;52.254;9.618;2024-02-15T12:22:31;13.60;99.90
15355;DHT22;7777;52.254;9.618;2024-02-15T12:24:59;13.60;99.90
15355;DHT22;7777;52.254;9.618;2024-02-15T12:27:27;13.60;99.90
15355;DHT22;7777;52.254;9.618;2024-02-15T12:29:58;13.60;99.90
15355;DHT22;7777;52.254;9.618;2024-02-15T12:32:25;13.60;99.90
15355;DHT22;7777;52.254;9.618;2024-02-15T12:34:53;13.60;99.90
15355;DHT22;7777;52.254;9.618;2024-02-15T12:37:33;13.60;99.90
15355;DHT22;7777;52.254;9.618;2024-02-15T12:40:10;13.60;99.90
15355;DHT22;7777;52.254;9.618;2024-02-15T12:42:46;13.60;99.90
15355;DHT22;7777;52.254;9.618;2024-02-15T12:45:19;13.60;99.90
15355;DHT22;7777;52.254;9.618;2024-02-15T12:47:56;13.60;99.90
15355;DHT22;7777;52.254;9.618;2024-02-15T12:50:27;13.60;99.90
15355;DHT22;7777;52.254;9.618;2024-02-15T12:52:54;13.60;99.90
15355;DHT22;7777;52.254;9.618;2024-02-15T12:55:24;13.50;99.90
15355;DHT22;7777;52.254;9.618;2024-02-15T12:57:51;13.50;99.90
15355;DHT22;7777;52.254;9.618;2024-02-15T13:00:20;13.60;99.90
15355;DHT22;7777;52.254;9.618;2024-02-15T13:02:51;13.50;99.90
15355;DHT22;7777;52.254;9.618;2024-02-15T13:05:19;13.60;99.90
15355;DHT22;7777;52.254;9.618;2024-02-15T13:07:47;13.60;99.90
15355;DHT22;7777;52.254;9.618;2024-02-15T13:10:18;13.60;99.90
15355;DHT22;7777;52.254;9.618;2024-02-15T13:12:44;13.60;99.90
15355;DHT22;7777;52.254;9.618;2024-02-15T13:15:13;13.60;99.90
15355;DHT22;7777;52.254;9.618;2024-02-15T13:17:48;13.60;99.90
15355;DHT22;7777;52.254;9.618;2024-02-15T13:20:17;13.60;99.90
15355;DHT22;7777;52.254;9.618;2024-02-15T13:22:46;13.60;99.90
15355;DHT22;7777;52.254;9.618;2024-02-15T13:25:15;13.60;99.90
15355;DHT22;7777;52.254;9.618;2024-02-15T13:27:46;13.60;99.90
15355;DHT22;7777;52.254;9.618;2024-02-15T13:30:13;13.70;99.90
15355;DHT22;7777;52.254;9.618;2024-02-15T13:32:40;13.70;99.90
15355;DHT22;7777;52.254;9.618;2024-02-15T13:35:10;13.70;99.90
15355;DHT22;7777;52.254;9.618;2024-02-15T13:37:42;13.70;99.90
15355;DHT22;7777;52.254;9.618;2024-02-15T13:40:10;13.70;99.90
15355;DHT22;7777;52.254;9.618;2024-02-15T13:42:45;13.80;99.90
15355;DHT22;7777;52.254;9.618;2024-02-15T13:45:19;13.80;99.90
15355;DHT22;7777;52.254;9.618;2024-02-15T13:47:48;13.80;99.90
15355;DHT22;7777;52.254;9.618;2024-02-15T13:50:17;13.90;99.90
15355;DHT22;7777;52.254;9.618;2024-02-15T13:52:43;13.90;99.90
15355;DHT22;7777;52.254;9.618;2024-02-15T13:55:11;13.90;99.90
15355;DHT22;7777;52.254;9.618;2024-02-15T13:57:38;13.90;99.90
15355;DHT22;7777;52.254;9.618;2024-02-15T14:00:11;14.00;99.90
15355;DHT22;7777;52.254;9.618;2024-02-15T14:02:43;13.90;99.90
15355;DHT22;7777;52.254;9.618;2024-02-15T14:05:10;13.90;99.90
15355;DHT22;7777;52.254;9.618;2024-02-15T14:07:38;13.90;99.90
15355;DHT22;7777;52.254;9.618;2024-02-15T14:10:05;13.90;99.90
15355;DHT22;7777;52.254;9.618;2024-02-15T14:12:33;13.90;99.90
15355;DHT22;7777;52.254;9.618;2024-02-15T14:15:00;13.90;99.90
15355;DHT22;7777;52.254;9.618;2024-02-15T14:17:26;13.90;99.90
15355;DHT22;7777;52.254;9.618;2024-02-15T14:19:53;13.90;99.90
15355;DHT22;7777;52.254;9.618;2024-02-15T14:22:19;13.90;99.90
15355;DHT22;7777;52.254;9.618;2024-02-15T14:24:49;13.90;99.90
15355;DHT22;7777;52.254;9.618;2024-02-15T14:27:15;14.00;99.90
15355;DHT22;7777;52.254;9.618;2024-02-15T14:29:41;14.00;99.90
15355;DHT22;7777;52.254;9.618;2024-02-15T14:32:29;14.00;99.90
15355;DHT22;7777;52.254;9.618;2024-02-15T14:35:14;14.00;99.90
15355;DHT22;7777;52.254;9.618;2024-02-15T14:37:40;14.00;99.90
15355;DHT22;7777;52.254;9.618;2024-02-15T14:40:06;14.00;99.90
15355;DHT22;7777;52.254;9.618;2024-02-15T14:42:32;14.00;99.90
15355;DHT22;7777;52.254;9.618;2024-02-15T14:45:03;14.00;99.90
15355;DHT22;7777;52.254;9.618;2024-02-15T14:47:30;14.00;99.90
15355;DHT22;7777;52.254;9.618;2024-02-15T14:49:55;14.00;99.90
15355;DHT22;7777;52.254;9.618;2024-02-15T14:52:21;14.00;99.90
15355;DHT22;7777;52.254;9.618;2024-02-15T14:54:47;14.00;99.90
15355;DHT22;7777;52.254;9.618;2024-02-15T14:57:14;14.00;99.90
15355;DHT22;7777;52.254;9.618;2024-02-15T14:59:40;14.00;99.90
15355;DHT22;7777;52.254;9.618;2024-02-15T15:02:06;13.90;99.90
15355;DHT22;7777;52.254;9.618;2024-02-15T15:04:34;13.90;99.90
15355;DHT22;7777;52.254;9.618;2024-02-15T15:07:20;13.90;99.90
15355;DHT22;7777;52.254;9.618;2024-02-15T15:10:05;13.90;99.90
15355;DHT22;7777;52.254;9.618;2024-02-15T15:12:50;13.90;99.90
15355;DHT22;7777;52.254;9.618;2024-02-15T15:15:16;13.90;99.90
15355;DHT22;7777;52.254;9.618;2024-02-15T15:17:44;13.90;99.90
15355;DHT22;7777;52.254;9.618;2024-02-15T15:20:11;13.90;99.90
15355;DHT22;7777;52.254;9.618;2024-02-15T15:22:37;13.90;99.90
15355;DHT22;7777;52.254;9.618;2024-02-15T15:25:04;13.90;99.90
15355;DHT22;7777;52.254;9.618;2024-02-15T15:27:30;13.90;99.90
15355;DHT22;7777;52.254;9.618;2024-02-15T15:29:56;13.90;99.90
15355;DHT22;7777;52.254;9.618;2024-02-15T15:32:22;13.90;99.90
15355;DHT22;7777;52.254;9.618;2024-02-15T15:34:49;13.90;99.90
15355;DHT22;7777;52.254;9.618;2024-02-15T15:37:15;13.90;99.90
15355;DHT22;7777;52.254;9.618;2024-02-15T15:39:41;13.90;99.90
15355;DHT22;7777;52.254;9.618;2024-02-15T15:42:07;13.90;99.90
15355;DHT22;7777;52.254;9.618;2024-02-15T15:44:33;13.90;99.90
15355;DHT22;7777;52.254;9.618;2024-02-15T15:46:59;13.90;99.90
15355;DHT22;7777;52.254;9.618;2024-02-15T15:49:25;13.90;99.90
15355;DHT22;7777;52.254;9.618;2024-02-15T15:51:52;13.90;99.90
15355;DHT22;7777;52.254;9.618;2024-02-15T15:54:19;13.90;99.90
15355;DHT22;7777;52.254;9.618;2024-02-15T15:56:45;13.90;99.90
15355;DHT22;7777;52.254;9.618;2024-02-15T15:59:12;13.90;99.90
15355;DHT22;7777;52.254;9.618;2024-02-15T16:01:39;13.80;99.90
15355;DHT22;7777;52.254;9.618;2024-02-15T16:04:12;13.80;99.90
15355;DHT22;7777;52.254;9.618;2024-02-15T16:06:37;13.80;99.90
15355;DHT22;7777;52.254;9.618;2024-02-15T16:09:06;13.80;99.90